createdAt,value
2019-03-24T00:00:05.421Z,103.55
2019-03-24T00:03:09.277Z,109.07
2019-03-24T00:06:13.043Z,103.38
2019-03-24T00:09:16.362Z,111.20
2019-03-24T00:12:20.176Z,103.47
2019-03-24T00:15:26.424Z,106.22
2019-03-24T00:18:29.084Z,112.28
2019-03-24T00:21:32.440Z,101.67
2019-03-24T00:24:35.752Z,97.17
2019-03-24T00:27:39.091Z,102.87
2019-03-24T00:30:42.408Z,105.43
2019-03-24T00:33:46.115Z,101.90
2019-03-24T00:36:49.483Z,103.72
2019-03-24T00:39:52.815Z,103.95
2019-03-24T00:42:56.151Z,111.20
2019-03-24T00:46:00.165Z,106.65
2019-03-24T00:49:04.952Z,108.47
2019-03-24T00:52:09.565Z,102.07
2019-03-24T00:55:12.956Z,89.65
2019-03-24T00:58:16.265Z,102.17
2019-03-24T01:01:19.666Z,100.35
2019-03-24T01:04:23.015Z,100.67
2019-03-24T01:07:26.333Z,99.75
2019-03-24T01:10:29.630Z,101.75
2019-03-24T01:13:32.987Z,102.32
2019-03-24T01:16:36.320Z,106.65
2019-03-24T01:19:39.667Z,96.45
2019-03-24T01:22:42.975Z,99.45
2019-03-24T01:25:46.287Z,101.25
2019-03-24T01:28:49.615Z,105.97
2019-03-24T01:31:52.939Z,104.15
2019-03-24T01:34:56.256Z,102.72
2019-03-24T01:37:59.559Z,98.35
2019-03-24T01:41:03.071Z,102.17
2019-03-24T01:44:06.402Z,102.85
2019-03-24T01:47:09.736Z,96.75
2019-03-24T01:50:13.047Z,102.02
2019-03-24T01:53:16.379Z,99.42
2019-03-24T01:56:19.704Z,94.30
2019-03-24T01:59:23.013Z,96.95
2019-03-24T02:02:26.360Z,92.37
2019-03-24T02:05:29.677Z,94.58
2019-03-24T02:08:33.004Z,89.30
2019-03-24T02:11:36.333Z,96.40
2019-03-24T02:14:39.650Z,92.72
2019-03-24T02:17:42.979Z,96.63
2019-03-24T02:20:46.297Z,94.32
2019-03-24T02:23:49.630Z,98.58
2019-03-24T02:26:52.968Z,95.90
2019-03-24T02:29:56.303Z,95.25
2019-03-24T02:32:59.631Z,100.07
2019-03-24T02:36:03.020Z,94.75
2019-03-24T02:39:07.547Z,96.75
2019-03-24T02:42:10.850Z,106.32
2019-03-24T02:45:14.204Z,98.45
2019-03-24T02:48:17.534Z,90.87
2019-03-24T02:51:20.890Z,100.35
2019-03-24T02:54:24.206Z,92.33
2019-03-24T02:57:27.552Z,84.83
2019-03-24T03:00:30.914Z,93.12
2019-03-24T03:03:39.859Z,82.70
2019-03-24T03:06:48.038Z,87.42
2019-03-24T03:09:51.344Z,84.22
2019-03-24T03:12:54.743Z,83.22
2019-03-24T03:15:58.100Z,89.35
2019-03-24T03:19:01.602Z,76.45
2019-03-24T03:22:04.986Z,78.12
2019-03-24T03:25:12.286Z,77.90
2019-03-24T03:28:18.671Z,82.62
2019-03-24T03:31:22.060Z,80.87
2019-03-24T03:34:25.417Z,74.77
2019-03-24T03:37:28.921Z,80.53
2019-03-24T03:40:32.360Z,77.87
2019-03-24T03:43:35.685Z,77.40
2019-03-24T03:46:52.297Z,72.92
2019-03-24T03:49:49.433Z,66.57
2019-03-24T03:52:52.766Z,73.15
2019-03-24T03:55:56.086Z,77.70
2019-03-24T03:59:01.067Z,70.83
2019-03-24T04:02:07.478Z,66.82
2019-03-24T04:05:10.880Z,69.37
2019-03-24T04:08:14.207Z,61.83
2019-03-24T04:11:20.938Z,65.75
2019-03-24T04:14:24.185Z,61.42
2019-03-24T04:17:27.535Z,59.85
2019-03-24T04:20:30.854Z,59.13
2019-03-24T04:23:34.173Z,64.58
2019-03-24T04:26:37.541Z,58.25
2019-03-24T04:29:43.534Z,59.53
2019-03-24T04:32:48.679Z,59.90
2019-03-24T04:35:51.984Z,55.88
2019-03-24T04:38:55.449Z,60.98
2019-03-24T04:41:58.806Z,55.65
2019-03-24T04:45:02.125Z,49.95
2019-03-24T04:48:05.475Z,49.25
2019-03-24T04:51:08.824Z,49.85
2019-03-24T04:54:12.146Z,52.03
2019-03-24T04:57:15.506Z,45.67
2019-03-24T05:00:22.121Z,50.00
2019-03-24T05:03:25.441Z,50.95
2019-03-24T05:06:28.838Z,52.20
2019-03-24T05:09:32.336Z,59.30
2019-03-24T05:12:35.641Z,50.30
2019-03-24T05:15:38.936Z,57.78
2019-03-24T05:18:42.543Z,43.15
2019-03-24T05:21:45.872Z,57.48
2019-03-24T05:24:49.233Z,52.53
2019-03-24T05:27:52.894Z,46.23
2019-03-24T05:30:56.296Z,39.42
2019-03-24T05:33:59.645Z,51.13
2019-03-24T05:37:03.036Z,55.78
2019-03-24T05:40:06.640Z,50.23
2019-03-24T05:43:10.124Z,52.48
2019-03-24T05:46:13.547Z,51.70
2019-03-24T05:49:16.965Z,52.13
2019-03-24T05:52:20.348Z,51.05
2019-03-24T05:55:23.722Z,49.00
2019-03-24T05:58:27.101Z,49.98
2019-03-24T06:01:30.604Z,47.93
2019-03-24T06:04:34.055Z,66.97
2019-03-24T06:07:37.412Z,57.43
2019-03-24T06:10:41.074Z,47.30
2019-03-24T06:13:46.029Z,59.30
2019-03-24T06:16:49.296Z,52.75
2019-03-24T06:19:54.288Z,53.28
2019-03-24T06:22:57.620Z,55.12
2019-03-24T06:26:02.672Z,57.38
2019-03-24T06:29:06.101Z,57.43
2019-03-24T06:32:09.622Z,51.13
2019-03-24T06:35:13.080Z,53.13
2019-03-24T06:38:16.403Z,52.13
2019-03-24T06:41:19.965Z,48.10
2019-03-24T06:44:23.306Z,50.33
2019-03-24T06:47:26.811Z,52.93
2019-03-24T06:50:31.823Z,46.05
2019-03-24T06:53:36.781Z,56.08
2019-03-24T06:56:41.908Z,52.45
2019-03-24T06:59:45.175Z,48.73
2019-03-24T07:02:48.631Z,54.35
2019-03-24T07:05:53.631Z,49.93
2019-03-24T07:08:58.240Z,53.17
2019-03-24T07:12:01.527Z,53.63
2019-03-24T07:15:06.734Z,49.18
2019-03-24T07:18:11.735Z,50.00
2019-03-24T07:21:22.172Z,52.27
2019-03-24T07:24:25.677Z,51.42
2019-03-24T07:27:29.003Z,49.90
2019-03-24T07:30:32.337Z,51.88
2019-03-24T07:33:35.909Z,57.98
2019-03-24T07:36:39.506Z,56.70
2019-03-24T07:39:42.821Z,51.50
2019-03-24T07:42:46.168Z,52.90
2019-03-24T07:45:49.598Z,49.83
2019-03-24T07:48:52.911Z,56.70
2019-03-24T07:51:56.341Z,53.02
2019-03-24T07:54:59.699Z,53.33
2019-03-24T07:58:03.100Z,48.40
2019-03-24T08:01:06.452Z,58.13
2019-03-24T08:04:11.407Z,44.33
2019-03-24T08:07:16.448Z,52.33
2019-03-24T08:10:19.886Z,52.60
2019-03-24T08:13:23.327Z,61.23
2019-03-24T08:16:26.678Z,51.30
2019-03-24T08:19:30.174Z,48.65
2019-03-24T08:22:33.714Z,51.75
2019-03-24T08:25:37.001Z,50.63
2019-03-24T08:28:40.354Z,52.05
2019-03-24T08:31:43.778Z,55.70
2019-03-24T08:34:48.422Z,54.35
2019-03-24T08:37:52.119Z,60.95
2019-03-24T08:40:55.415Z,56.15
2019-03-24T08:43:58.754Z,64.58
2019-03-24T08:47:02.102Z,64.22
2019-03-24T08:50:07.243Z,65.57
2019-03-24T08:53:10.561Z,60.67
2019-03-24T08:56:14.063Z,69.00
2019-03-24T08:59:17.400Z,60.50
2019-03-24T09:02:20.867Z,67.92
2019-03-24T09:05:24.165Z,71.60
2019-03-24T09:08:27.495Z,73.10
2019-03-24T09:11:31.675Z,65.97
2019-03-24T09:14:35.142Z,62.17
2019-03-24T09:17:40.975Z,63.00
2019-03-24T09:20:43.532Z,64.87
2019-03-24T09:23:46.883Z,67.08
2019-03-24T09:26:50.209Z,66.87
2019-03-24T09:29:53.553Z,56.37
2019-03-24T09:32:56.884Z,62.90
2019-03-24T09:36:00.281Z,60.30
2019-03-24T09:39:04.988Z,57.75
2019-03-24T09:42:08.304Z,58.60
2019-03-24T09:45:11.627Z,59.63
2019-03-24T09:48:14.951Z,59.38
2019-03-24T09:51:18.283Z,59.63
2019-03-24T09:54:21.635Z,59.45
2019-03-24T09:57:24.924Z,60.60
2019-03-24T10:00:28.278Z,60.73
2019-03-24T10:03:31.600Z,55.45
2019-03-24T10:06:34.917Z,60.98
2019-03-24T10:09:38.300Z,60.85
2019-03-24T10:12:41.647Z,52.88
2019-03-24T10:15:44.955Z,59.03
2019-03-24T10:18:48.370Z,65.60
2019-03-24T10:21:51.760Z,57.65
2019-03-24T10:24:55.057Z,54.15
2019-03-24T10:27:58.395Z,56.13
2019-03-24T10:31:01.764Z,54.75
2019-03-24T10:34:05.084Z,56.92
2019-03-24T10:37:08.439Z,56.35
2019-03-24T10:40:12.526Z,58.17
2019-03-24T10:43:15.859Z,50.73
2019-03-24T10:46:19.190Z,57.65
2019-03-24T10:49:25.012Z,54.03
2019-03-24T10:52:27.561Z,59.10
2019-03-24T10:55:30.890Z,49.75
2019-03-24T10:58:34.245Z,49.45
2019-03-24T11:01:37.538Z,56.68
2019-03-24T11:04:40.879Z,51.65
2019-03-24T11:07:44.233Z,57.85
2019-03-24T11:10:47.540Z,53.25
2019-03-24T11:13:50.879Z,48.48
2019-03-24T11:16:54.181Z,48.13
2019-03-24T11:19:57.520Z,54.98
2019-03-24T11:23:00.874Z,55.23
2019-03-24T11:26:04.180Z,56.50
2019-03-24T11:29:07.522Z,58.13
2019-03-24T11:32:10.842Z,52.45
2019-03-24T11:35:14.168Z,56.55
2019-03-24T11:38:17.504Z,54.38
2019-03-24T11:41:20.852Z,55.95
2019-03-24T11:44:24.218Z,56.65
2019-03-24T11:47:27.485Z,55.17
2019-03-24T11:50:30.806Z,46.63
2019-03-24T11:53:34.204Z,56.73
2019-03-24T11:56:37.526Z,57.58
2019-03-24T11:59:40.877Z,56.15
2019-03-24T12:02:44.313Z,52.50
2019-03-24T12:05:47.627Z,57.25
2019-03-24T12:08:51.185Z,49.30
2019-03-24T12:11:54.534Z,50.55
2019-03-24T12:14:57.847Z,58.25
2019-03-24T12:18:01.189Z,53.23
2019-03-24T12:21:04.523Z,59.00
2019-03-24T12:24:07.830Z,55.35
2019-03-24T12:27:11.198Z,54.35
2019-03-24T12:30:14.484Z,60.70
2019-03-24T12:33:17.822Z,44.30
2019-03-24T12:36:21.156Z,48.55
2019-03-24T12:39:24.472Z,55.40
2019-03-24T12:42:27.817Z,54.90
2019-03-24T12:45:33.517Z,54.50
2019-03-24T12:48:36.207Z,55.58
2019-03-24T12:51:39.562Z,56.13
2019-03-24T12:54:42.903Z,58.42
2019-03-24T12:57:46.209Z,57.33
2019-03-24T13:00:49.532Z,64.05
2019-03-24T13:03:52.867Z,59.13
2019-03-24T13:06:56.191Z,58.30
2019-03-24T13:09:59.530Z,61.75
2019-03-24T13:13:02.936Z,53.02
2019-03-24T13:16:06.261Z,47.17
2019-03-24T13:19:09.578Z,55.65
2019-03-24T13:22:12.918Z,55.50
2019-03-24T13:25:16.215Z,49.75
2019-03-24T13:28:19.576Z,54.45
2019-03-24T13:31:22.913Z,51.40
2019-03-24T13:34:26.214Z,52.17
2019-03-24T13:37:29.538Z,48.35
2019-03-24T13:40:32.851Z,50.48
2019-03-24T13:43:36.179Z,52.53
2019-03-24T13:46:39.526Z,48.58
2019-03-24T13:49:42.836Z,51.90
2019-03-24T13:52:46.179Z,50.70
2019-03-24T13:55:49.555Z,45.17
2019-03-24T13:58:52.959Z,47.23
2019-03-24T14:01:56.318Z,40.65
2019-03-24T14:04:59.693Z,40.30
2019-03-24T14:08:03.013Z,44.58
2019-03-24T14:11:06.359Z,38.53
2019-03-24T14:14:09.688Z,44.40
2019-03-24T14:17:13.333Z,41.58
2019-03-24T14:20:16.649Z,43.05
2019-03-24T14:23:19.991Z,54.77
2019-03-24T14:26:23.296Z,35.50
2019-03-24T14:29:27.234Z,42.15
2019-03-24T14:32:30.675Z,41.53
2019-03-24T14:35:33.994Z,40.73
2019-03-24T14:38:37.310Z,36.25
2019-03-24T14:41:40.667Z,39.45
2019-03-24T14:44:43.997Z,42.67
2019-03-24T14:47:47.312Z,45.15
2019-03-24T14:50:54.860Z,42.95
2019-03-24T14:53:55.686Z,38.40
2019-03-24T14:56:59.023Z,35.23
2019-03-24T15:00:02.732Z,39.88
2019-03-24T15:03:06.064Z,46.85
2019-03-24T15:06:09.407Z,47.45
2019-03-24T15:09:12.746Z,39.95
2019-03-24T15:12:16.073Z,38.13
2019-03-24T15:15:19.474Z,41.75
2019-03-24T15:18:22.797Z,37.28
2019-03-24T15:21:26.130Z,36.40
2019-03-24T15:24:29.479Z,34.15
2019-03-24T15:27:32.783Z,39.95
2019-03-24T15:30:36.143Z,36.15
2019-03-24T15:33:39.492Z,37.60
2019-03-24T15:36:42.815Z,42.88
2019-03-24T15:39:46.134Z,35.73
2019-03-24T15:42:49.459Z,39.65
2019-03-24T15:45:52.816Z,42.43
2019-03-24T15:48:56.178Z,43.90
2019-03-24T15:51:59.500Z,33.33
2019-03-24T15:55:03.316Z,42.25
2019-03-24T15:58:06.611Z,34.60
2019-03-24T16:01:09.945Z,37.48
2019-03-24T16:04:13.268Z,37.73
2019-03-24T16:07:16.610Z,32.40
2019-03-24T16:10:19.944Z,40.85
2019-03-24T16:13:23.264Z,33.65
2019-03-24T16:16:26.746Z,36.20
2019-03-24T16:19:30.105Z,36.17
2019-03-24T16:22:33.398Z,29.90
2019-03-24T16:25:36.764Z,37.13
2019-03-24T16:28:40.098Z,32.23
2019-03-24T16:31:43.439Z,36.10
2019-03-24T16:34:46.805Z,37.38
2019-03-24T16:37:50.094Z,47.03
2019-03-24T16:40:53.449Z,40.12
2019-03-24T16:43:56.819Z,40.17
2019-03-24T16:47:00.169Z,44.77
2019-03-24T16:50:05.137Z,38.48
2019-03-24T16:53:08.455Z,40.20
2019-03-24T16:56:11.781Z,36.28
2019-03-24T16:59:15.157Z,41.33
2019-03-24T17:02:18.479Z,44.10
2019-03-24T17:05:21.832Z,40.98
2019-03-24T17:08:25.307Z,36.08
2019-03-24T17:11:28.620Z,38.00
2019-03-24T17:14:31.972Z,46.45
2019-03-24T17:17:35.301Z,40.48
2019-03-24T17:20:38.701Z,36.28
2019-03-24T17:23:42.041Z,37.93
2019-03-24T17:26:45.367Z,35.90
2019-03-24T17:29:48.698Z,32.55
2019-03-24T17:32:52.035Z,38.67
2019-03-24T17:35:55.431Z,38.02
2019-03-24T17:38:58.737Z,40.73
2019-03-24T17:42:02.142Z,38.73
2019-03-24T17:45:10.260Z,33.28
2019-03-24T17:48:13.577Z,41.40
2019-03-24T17:51:16.913Z,48.60
2019-03-24T17:54:20.327Z,54.60
2019-03-24T17:57:23.649Z,53.30
2019-03-24T18:00:43.166Z,49.53
2019-03-24T18:03:46.490Z,60.08
2019-03-24T18:06:49.812Z,54.58
2019-03-24T18:09:53.132Z,58.85
2019-03-24T18:12:56.468Z,53.85
2019-03-24T18:15:59.811Z,52.67
2019-03-24T18:19:03.190Z,57.38
2019-03-24T18:22:11.550Z,53.45
2019-03-24T18:25:11.569Z,63.13
2019-03-24T18:28:14.928Z,54.77
2019-03-24T18:31:18.227Z,55.85
2019-03-24T18:34:21.575Z,57.93
2019-03-24T18:37:24.917Z,54.90
2019-03-24T18:40:28.244Z,56.53
2019-03-24T18:43:31.570Z,56.92
2019-03-24T18:46:34.898Z,65.45
2019-03-24T18:49:38.270Z,51.75
2019-03-24T18:52:41.661Z,58.08
2019-03-24T18:55:44.983Z,59.23
2019-03-24T18:58:48.358Z,63.83
2019-03-24T19:01:51.645Z,58.10
2019-03-24T19:04:55.045Z,50.38
2019-03-24T19:07:58.389Z,50.85
2019-03-24T19:11:01.733Z,60.00
2019-03-24T19:14:05.246Z,55.98
2019-03-24T19:17:10.130Z,53.23
2019-03-24T19:20:14.591Z,51.28
2019-03-24T19:23:17.907Z,61.63
2019-03-24T19:26:21.241Z,53.73
2019-03-24T19:29:24.579Z,51.18
2019-03-24T19:32:28.499Z,57.60
2019-03-24T19:35:31.992Z,67.15
2019-03-24T19:38:35.991Z,59.40
2019-03-24T19:41:39.338Z,60.30
2019-03-24T19:44:43.180Z,52.73
2019-03-24T19:47:46.506Z,54.30
2019-03-24T19:50:49.866Z,51.23
2019-03-24T19:53:53.955Z,59.77
2019-03-24T19:56:58.080Z,55.25
2019-03-24T20:00:01.593Z,55.20
2019-03-24T20:03:05.101Z,53.00
2019-03-24T20:06:09.105Z,53.30
2019-03-24T20:09:12.683Z,44.00
2019-03-24T20:12:16.029Z,44.95
2019-03-24T20:15:19.565Z,44.55
2019-03-24T20:18:23.387Z,40.85
2019-03-24T20:21:32.125Z,41.37
2019-03-24T20:24:35.678Z,37.75
2019-03-24T20:27:39.013Z,44.35
2019-03-24T20:30:42.356Z,39.13
2019-03-24T20:33:45.712Z,31.20
2019-03-24T20:36:49.064Z,40.63
2019-03-24T20:39:52.568Z,43.80
2019-03-24T20:42:55.902Z,39.08
2019-03-24T20:45:59.534Z,33.60
2019-03-24T20:49:02.855Z,79.07
2019-03-24T20:52:06.236Z,46.95
2019-03-24T20:55:09.666Z,32.17
2019-03-24T20:58:13.005Z,39.63
2019-03-24T21:01:18.732Z,34.48
2019-03-24T21:04:21.423Z,39.27
2019-03-24T21:07:24.832Z,35.40
2019-03-24T21:10:29.843Z,34.45
2019-03-24T21:13:33.233Z,32.08
2019-03-24T21:16:36.570Z,32.13
2019-03-24T21:19:39.907Z,31.57
2019-03-24T21:22:43.227Z,38.13
2019-03-24T21:25:46.568Z,37.98
2019-03-24T21:28:51.931Z,37.80
2019-03-24T21:31:55.328Z,39.23
2019-03-24T21:34:58.721Z,42.50
2019-03-24T21:38:02.039Z,40.33
2019-03-24T21:41:05.397Z,36.00
2019-03-24T21:44:08.782Z,34.33
2019-03-24T21:47:12.123Z,36.42
2019-03-24T21:50:15.442Z,33.38
2019-03-24T21:53:18.757Z,28.87
2019-03-24T21:56:22.163Z,30.90
2019-03-24T21:59:25.452Z,31.02
2019-03-24T22:02:28.958Z,32.13
2019-03-24T22:05:32.293Z,30.85
2019-03-24T22:08:35.618Z,25.40
2019-03-24T22:11:38.969Z,21.40
2019-03-24T22:14:42.307Z,19.25
2019-03-24T22:17:45.624Z,17.87
2019-03-24T22:20:49.389Z,22.22
2019-03-24T22:23:52.809Z,22.17
2019-03-24T22:26:56.152Z,18.92
2019-03-24T22:29:59.455Z,18.90
2019-03-24T22:33:02.780Z,22.77
2019-03-24T22:36:06.110Z,17.55
2019-03-24T22:39:09.462Z,21.80
2019-03-24T22:42:12.862Z,20.75
2019-03-24T22:45:16.235Z,23.83
2019-03-24T22:48:19.560Z,22.70
2019-03-24T22:51:22.900Z,19.70
2019-03-24T22:54:29.100Z,22.35
2019-03-24T22:57:32.728Z,21.25
2019-03-24T23:00:51.087Z,21.50
2019-03-24T23:03:56.059Z,20.20
2019-03-24T23:06:59.394Z,27.60
2019-03-24T23:10:02.756Z,52.15
2019-03-24T23:13:06.094Z,28.90
2019-03-24T23:16:09.484Z,59.45
2019-03-24T23:19:12.815Z,22.02
2019-03-24T23:22:16.118Z,17.65
2019-03-24T23:25:19.453Z,22.07
2019-03-24T23:28:22.776Z,18.92
2019-03-24T23:31:26.083Z,21.65
2019-03-24T23:34:29.476Z,26.87
2019-03-24T23:37:32.818Z,22.45
2019-03-24T23:40:36.125Z,21.90
2019-03-24T23:43:39.429Z,24.20
2019-03-24T23:46:42.823Z,23.87
2019-03-24T23:49:46.137Z,22.37
2019-03-24T23:52:49.446Z,24.27
2019-03-24T23:55:52.819Z,17.25
2019-03-24T23:58:56.143Z,20.32
